createdAt,value
2023-03-19T00:00:52.632Z,98991.56
2023-03-19T00:03:39.145Z,98992.90
2023-03-19T00:06:07.225Z,98996.86
2023-03-19T00:08:35.440Z,98996.27
2023-03-19T00:11:06.967Z,98993.55
2023-03-19T00:13:34.821Z,98995.77
2023-03-19T00:16:02.653Z,98992.23
2023-03-19T00:18:30.733Z,98988.64
2023-03-19T00:20:58.960Z,98990.51
2023-03-19T00:23:27.125Z,98989.40
2023-03-19T00:25:55.080Z,98989.83
2023-03-19T00:28:22.914Z,98985.52
2023-03-19T00:30:50.817Z,98984.55
2023-03-19T00:33:20.116Z,98984.10
2023-03-19T00:35:48.124Z,98979.79
2023-03-19T00:38:16.248Z,98983.34
2023-03-19T00:40:44.039Z,98982.45
2023-03-19T00:43:12.224Z,98976.91
2023-03-19T00:45:41.396Z,98979.15
2023-03-19T00:48:09.625Z,98975.11
2023-03-19T00:50:37.530Z,98967.46
2023-03-19T00:53:05.601Z,98959.95
2023-03-19T00:55:33.675Z,98958.05
2023-03-19T00:58:02.318Z,98953.14
2023-03-19T01:00:30.316Z,98954.02
2023-03-19T01:02:58.205Z,98958.98
2023-03-19T01:05:26.582Z,98962.67
2023-03-19T01:07:54.577Z,98962.15
2023-03-19T01:10:24.378Z,98957.05
2023-03-19T01:12:52.315Z,98957.28
2023-03-19T01:17:48.221Z,98952.60
2023-03-19T01:20:18.752Z,98956.12
2023-03-19T01:22:46.622Z,98964.57
2023-03-19T01:25:14.633Z,98969.86
2023-03-19T01:27:51.436Z,98972.34
2023-03-19T01:30:20.540Z,98971.73
2023-03-19T01:33:07.455Z,98969.33
2023-03-19T01:35:41.342Z,98971.14
2023-03-19T01:38:09.622Z,98971.88
2023-03-19T01:40:44.900Z,98979.41
2023-03-19T01:43:17.708Z,98979.27
2023-03-19T01:45:52.805Z,98978.55
2023-03-19T01:48:49.901Z,98978.13
2023-03-19T01:51:25.754Z,98976.04
2023-03-19T01:54:22.769Z,98977.30
2023-03-19T01:57:07.128Z,98979.95
2023-03-19T02:00:04.322Z,98979.08
2023-03-19T02:02:49.390Z,98975.19
2023-03-19T02:05:26.624Z,98976.38
2023-03-19T02:08:05.476Z,98969.92
2023-03-19T02:10:34.130Z,98969.77
2023-03-19T02:13:02.125Z,98971.90
2023-03-19T02:15:30.872Z,98970.67
2023-03-19T02:17:58.791Z,98969.48
2023-03-19T02:20:35.087Z,98967.17
2023-03-19T02:23:18.247Z,98969.91
2023-03-19T02:25:47.669Z,98974.19
2023-03-19T02:28:18.464Z,98970.27
2023-03-19T02:30:48.524Z,98970.77
2023-03-19T02:33:18.891Z,98965.66
2023-03-19T02:35:51.226Z,98970.86
2023-03-19T02:38:22.471Z,98970.19
2023-03-19T02:41:08.393Z,98970.05
2023-03-19T02:43:38.448Z,98970.03
2023-03-19T02:46:09.939Z,98968.61
2023-03-19T02:48:38.183Z,98969.69
2023-03-19T02:51:06.428Z,98970.57
2023-03-19T02:53:35.091Z,98971.15
2023-03-19T02:56:03.422Z,98977.64
2023-03-19T02:58:31.394Z,98980.35
2023-03-19T03:00:59.374Z,98981.64
2023-03-19T03:03:27.548Z,98980.15
2023-03-19T03:05:55.491Z,98983.38
2023-03-19T03:08:23.642Z,98982.91
2023-03-19T03:10:51.471Z,98985.48
2023-03-19T03:13:19.345Z,98987.30
2023-03-19T03:15:47.255Z,98986.98
2023-03-19T03:18:15.060Z,98990.75
2023-03-19T03:20:43.344Z,98995.55
2023-03-19T03:23:11.490Z,98992.08
2023-03-19T03:25:39.404Z,98985.13
2023-03-19T03:28:07.704Z,98980.81
2023-03-19T03:30:36.271Z,98981.36
2023-03-19T03:33:04.112Z,98985.39
2023-03-19T03:35:32.487Z,98984.36
2023-03-19T03:38:00.402Z,98981.75
2023-03-19T03:40:28.321Z,98981.61
2023-03-19T03:42:56.601Z,98984.59
2023-03-19T03:45:25.670Z,98987.97
2023-03-19T03:47:54.047Z,98993.48
2023-03-19T03:50:21.881Z,98998.77
2023-03-19T03:52:50.689Z,98997.04
2023-03-19T03:55:18.533Z,98994.42
2023-03-19T03:57:46.378Z,98996.38
2023-03-19T04:00:14.521Z,98997.46
2023-03-19T04:02:44.281Z,99000.34
2023-03-19T04:05:16.372Z,98997.06
2023-03-19T04:07:44.789Z,98990.98
2023-03-19T04:10:14.064Z,98993.10
2023-03-19T04:12:41.975Z,98993.66
2023-03-19T04:15:11.155Z,98990.38
2023-03-19T04:17:40.512Z,98985.14
2023-03-19T04:20:09.586Z,98983.44
2023-03-19T04:22:37.801Z,98982.98
2023-03-19T04:25:08.286Z,98987.41
2023-03-19T04:27:36.795Z,98989.36
2023-03-19T04:30:05.938Z,98987.84
2023-03-19T04:32:35.572Z,98988.26
2023-03-19T04:35:03.943Z,98989.35
2023-03-19T04:37:31.889Z,98987.15
2023-03-19T04:40:01.076Z,98986.49
2023-03-19T04:42:30.271Z,98986.88
2023-03-19T04:45:07.734Z,98992.13
2023-03-19T04:47:36.026Z,98994.25
2023-03-19T04:50:04.456Z,98992.36
2023-03-19T04:52:33.856Z,98991.36
2023-03-19T04:55:05.360Z,98988.75
2023-03-19T04:57:41.119Z,98990.84
2023-03-19T05:00:11.037Z,98985.86
2023-03-19T05:02:41.430Z,98982.52
2023-03-19T05:05:14.733Z,98981.61
2023-03-19T05:07:42.795Z,98980.01
2023-03-19T05:10:11.626Z,98981.34
2023-03-19T05:12:39.916Z,98977.92
2023-03-19T05:15:08.948Z,98979.58
2023-03-19T05:17:40.284Z,98984.18
2023-03-19T05:20:21.874Z,98986.20
2023-03-19T05:22:55.202Z,98986.59
2023-03-19T05:25:28.974Z,98988.46
2023-03-19T05:27:57.258Z,98991.19
2023-03-19T05:30:27.376Z,98994.96
2023-03-19T05:33:15.427Z,98995.58
2023-03-19T05:35:45.834Z,98994.56
2023-03-19T05:38:22.617Z,98993.25
2023-03-19T05:40:56.257Z,98992.76
2023-03-19T05:43:34.644Z,98990.15
2023-03-19T05:46:05.360Z,98995.56
2023-03-19T05:48:34.533Z,98995.14
2023-03-19T05:51:04.372Z,98996.27
2023-03-19T05:53:36.636Z,99000.15
2023-03-19T05:56:22.493Z,99000.98
2023-03-19T05:59:01.118Z,99004.48
2023-03-19T06:01:33.363Z,98999.63
2023-03-19T06:04:03.193Z,98993.40
2023-03-19T06:06:32.142Z,98996.50
2023-03-19T06:09:00.040Z,99002.18
2023-03-19T06:11:36.754Z,99007.33
2023-03-19T06:14:25.392Z,99012.06
2023-03-19T06:17:16.265Z,99010.28
2023-03-19T06:19:44.504Z,99013.40
2023-03-19T06:22:12.549Z,99015.40
2023-03-19T06:24:40.556Z,99017.52
2023-03-19T06:27:08.577Z,99013.77
2023-03-19T06:29:36.672Z,99007.16
2023-03-19T06:32:15.227Z,99006.77
2023-03-19T06:34:44.056Z,99006.88
2023-03-19T06:37:12.206Z,99008.79
2023-03-19T06:39:40.208Z,99014.47
2023-03-19T06:42:08.427Z,99018.31
2023-03-19T06:44:36.658Z,99018.52
2023-03-19T06:47:04.720Z,99020.69
2023-03-19T06:49:33.168Z,99024.31
2023-03-19T06:52:01.511Z,99022.31
2023-03-19T06:54:29.636Z,99016.33
2023-03-19T06:56:58.184Z,99014.59
2023-03-19T06:59:26.716Z,99016.13
2023-03-19T07:01:54.522Z,99015.73
2023-03-19T07:04:22.598Z,99009.51
2023-03-19T07:06:50.789Z,99015.87
2023-03-19T07:09:18.960Z,99019.72
2023-03-19T07:11:46.835Z,99025.11
2023-03-19T07:14:14.963Z,99025.58
2023-03-19T07:16:42.888Z,99024.47
2023-03-19T07:19:11.372Z,99029.20
2023-03-19T07:21:39.449Z,99030.92
2023-03-19T07:24:07.851Z,99033.11
2023-03-19T07:26:36.006Z,99035.16
2023-03-19T07:29:04.191Z,99036.55
2023-03-19T07:31:32.086Z,99032.33
2023-03-19T07:34:00.437Z,99028.42
2023-03-19T07:36:28.610Z,99023.63
2023-03-19T07:38:57.521Z,99024.71
2023-03-19T07:41:25.778Z,99028.14
2023-03-19T07:43:53.627Z,99035.23
2023-03-19T07:46:21.634Z,99039.20
2023-03-19T07:48:49.552Z,99037.02
2023-03-19T07:51:17.537Z,99035.02
2023-03-19T07:53:45.510Z,99036.16
2023-03-19T07:56:13.628Z,99038.69
2023-03-19T07:58:41.473Z,99039.71
2023-03-19T08:01:09.684Z,99043.69
2023-03-19T08:03:38.651Z,99046.89
2023-03-19T08:06:06.792Z,99048.48
2023-03-19T08:08:35.040Z,99050.55
2023-03-19T08:11:03.556Z,99055.19
2023-03-19T08:13:31.694Z,99049.64
2023-03-19T08:15:59.741Z,99039.94
2023-03-19T08:18:27.600Z,99033.20
2023-03-19T08:20:55.710Z,99027.92
2023-03-19T08:23:23.795Z,99021.90
2023-03-19T08:25:53.518Z,99016.08
2023-03-19T08:28:21.818Z,99013.97
2023-03-19T08:30:50.022Z,99015.45
2023-03-19T08:33:18.054Z,99023.09
2023-03-19T08:35:46.568Z,99024.60
2023-03-19T08:38:14.462Z,99021.04
2023-03-19T08:40:42.763Z,99028.21
2023-03-19T08:43:10.979Z,99027.04
2023-03-19T08:45:39.306Z,99026.17
2023-03-19T08:48:07.750Z,99023.40
2023-03-19T08:50:36.342Z,99014.61
2023-03-19T08:53:04.505Z,99012.50
2023-03-19T08:55:32.342Z,99011.10
2023-03-19T08:58:00.681Z,99013.96
2023-03-19T09:00:28.962Z,99018.80
2023-03-19T09:02:56.827Z,99014.83
2023-03-19T09:05:24.850Z,99000.66
2023-03-19T09:07:53.076Z,98997.66
2023-03-19T09:10:21.174Z,99000.55
2023-03-19T09:12:49.189Z,99006.89
2023-03-19T09:15:17.421Z,99005.35
2023-03-19T09:17:45.771Z,99005.81
2023-03-19T09:20:14.140Z,98999.44
2023-03-19T09:22:42.384Z,98996.41
2023-03-19T09:25:10.890Z,98997.15
2023-03-19T09:27:39.071Z,98998.05
2023-03-19T09:30:09.954Z,98996.41
2023-03-19T09:32:37.913Z,98998.20
2023-03-19T09:35:07.041Z,98999.14
2023-03-19T09:37:35.061Z,99002.74
2023-03-19T09:40:04.918Z,99008.52
2023-03-19T09:42:57.551Z,99009.27
2023-03-19T09:45:28.421Z,99008.23
2023-03-19T09:48:04.274Z,99007.41
2023-03-19T09:50:34.787Z,99005.27
2023-03-19T09:53:18.237Z,99006.50
2023-03-19T09:55:51.463Z,99002.11
2023-03-19T09:58:22.545Z,99003.65
2023-03-19T10:00:51.774Z,99004.16
2023-03-19T10:03:25.655Z,98999.89
2023-03-19T10:06:02.720Z,98995.27
2023-03-19T10:09:12.067Z,98999.61
2023-03-19T10:12:07.342Z,99005.15
2023-03-19T10:15:01.970Z,98998.40
2023-03-19T10:17:53.171Z,98994.08
2023-03-19T10:20:53.630Z,98987.88
2023-03-19T10:23:44.898Z,98979.96
2023-03-19T10:26:28.425Z,98973.27
2023-03-19T10:29:18.780Z,98968.86
2023-03-19T10:31:53.151Z,98966.63
2023-03-19T10:34:35.059Z,98964.45
2023-03-19T10:37:14.946Z,98963.61
2023-03-19T10:39:44.855Z,98965.20
2023-03-19T10:42:43.617Z,98961.88
2023-03-19T10:45:33.288Z,98963.09
2023-03-19T10:48:04.332Z,98958.98
2023-03-19T10:50:46.403Z,98956.55
2023-03-19T10:53:14.207Z,98957.34
2023-03-19T10:55:50.850Z,98952.02
2023-03-19T10:58:22.665Z,98948.94
2023-03-19T11:00:59.662Z,98947.90
2023-03-19T11:03:38.634Z,98952.17
2023-03-19T11:06:22.977Z,98952.04
2023-03-19T11:09:19.835Z,98950.84
2023-03-19T11:11:51.329Z,98951.89
2023-03-19T11:14:31.105Z,98950.95
2023-03-19T11:17:05.416Z,98952.38
2023-03-19T11:19:49.084Z,98946.30
2023-03-19T11:22:21.250Z,98942.23
2023-03-19T11:24:50.817Z,98937.13
2023-03-19T11:27:19.505Z,98938.30
2023-03-19T11:29:47.333Z,98935.44
2023-03-19T11:32:31.054Z,98935.40
2023-03-19T11:35:20.587Z,98932.27
2023-03-19T11:37:54.506Z,98929.70
2023-03-19T11:40:51.217Z,98924.84
2023-03-19T11:44:02.579Z,98920.46
2023-03-19T11:46:44.710Z,98917.11
2023-03-19T11:49:27.657Z,98915.39
2023-03-19T11:52:08.441Z,98909.45
2023-03-19T11:54:48.868Z,98921.15
2023-03-19T11:57:38.196Z,98924.50
2023-03-19T12:00:14.606Z,98926.38
2023-03-19T12:02:48.527Z,98921.36
2023-03-19T12:05:24.638Z,98924.58
2023-03-19T12:08:20.004Z,98927.11
2023-03-19T12:11:22.116Z,98923.95
2023-03-19T12:14:11.481Z,98918.30
2023-03-19T12:16:48.187Z,98919.21
2023-03-19T12:19:24.686Z,98920.81
2023-03-19T12:22:04.763Z,98922.67
2023-03-19T12:24:39.441Z,98919.41
2023-03-19T12:27:16.182Z,98912.77
2023-03-19T12:29:56.131Z,98912.58
2023-03-19T12:33:12.531Z,98911.96
2023-03-19T12:35:43.225Z,98911.73
2023-03-19T12:38:34.296Z,98911.14
2023-03-19T12:41:11.480Z,98906.98
2023-03-19T12:44:01.891Z,98903.94
2023-03-19T12:46:38.875Z,98902.26
2023-03-19T12:49:15.534Z,98904.54
2023-03-19T12:51:53.932Z,98904.17
2023-03-19T12:54:45.875Z,98905.19
2023-03-19T12:57:22.042Z,98909.39
2023-03-19T13:00:04.920Z,98911.71
2023-03-19T13:02:38.832Z,98914.52
2023-03-19T13:05:31.047Z,98915.97
2023-03-19T13:08:12.045Z,98914.90
2023-03-19T13:10:40.514Z,98916.91
2023-03-19T13:13:24.927Z,98921.19
2023-03-19T13:15:59.098Z,98914.81
2023-03-19T13:18:42.214Z,98913.22
2023-03-19T13:21:21.714Z,98910.88
2023-03-19T13:24:00.109Z,98911.52
2023-03-19T13:26:28.591Z,98910.20
2023-03-19T13:29:08.338Z,98904.48
2023-03-19T13:31:37.876Z,98901.29
2023-03-19T13:34:22.200Z,98900.30
2023-03-19T13:37:25.221Z,98901.94
2023-03-19T13:39:53.070Z,98906.56
2023-03-19T13:42:37.427Z,98909.16
2023-03-19T13:45:28.369Z,98911.52
2023-03-19T13:48:23.955Z,98913.81
2023-03-19T13:51:17.827Z,98912.54
2023-03-19T13:54:16.404Z,98912.11
2023-03-19T13:57:01.518Z,98915.91
2023-03-19T13:59:32.869Z,98913.64
2023-03-19T14:02:03.403Z,98911.93
2023-03-19T14:04:34.435Z,98906.79
2023-03-19T14:07:42.287Z,98909.94
2023-03-19T14:10:25.485Z,98910.07
2023-03-19T14:13:04.896Z,98911.05
2023-03-19T14:15:33.830Z,98908.10
2023-03-19T14:18:05.913Z,98908.08
2023-03-19T14:20:47.872Z,98906.63
2023-03-19T14:23:33.816Z,98909.56
2023-03-19T14:26:16.574Z,98909.40
2023-03-19T14:28:59.652Z,98909.73
2023-03-19T14:31:47.264Z,98910.48
2023-03-19T14:34:18.930Z,98908.38
2023-03-19T14:36:55.801Z,98906.19
2023-03-19T14:39:29.248Z,98907.63
2023-03-19T14:42:08.381Z,98904.02
2023-03-19T14:44:58.117Z,98903.14
2023-03-19T14:47:48.948Z,98904.18
2023-03-19T14:50:35.460Z,98904.36
2023-03-19T14:53:11.200Z,98906.05
2023-03-19T14:55:39.293Z,98907.42
2023-03-19T14:58:11.517Z,98917.71
2023-03-19T15:01:06.658Z,98917.44
2023-03-19T15:03:39.756Z,98919.11
2023-03-19T15:06:13.450Z,98919.80
2023-03-19T15:08:42.445Z,98919.54
2023-03-19T15:11:34.072Z,98914.36
2023-03-19T15:14:13.997Z,98916.00
2023-03-19T15:17:01.773Z,98916.30
2023-03-19T15:19:32.234Z,98921.00
2023-03-19T15:22:09.963Z,98924.48
2023-03-19T15:24:37.852Z,98927.52
2023-03-19T15:27:27.145Z,98928.62
2023-03-19T15:30:04.944Z,98927.48
2023-03-19T15:33:02.979Z,98925.91
2023-03-19T15:35:36.109Z,98925.09
2023-03-19T15:38:11.694Z,98927.14
2023-03-19T15:40:41.468Z,98930.05
2023-03-19T15:43:12.796Z,98933.62
2023-03-19T15:45:46.211Z,98938.00
2023-03-19T15:48:29.233Z,98940.57
2023-03-19T15:51:01.107Z,98939.84
2023-03-19T15:53:32.691Z,98942.75
2023-03-19T15:56:02.549Z,98943.52
2023-03-19T15:58:36.723Z,98944.06
2023-03-19T16:01:08.039Z,98947.14
2023-03-19T16:03:42.220Z,98950.52
2023-03-19T16:06:29.237Z,98948.21
2023-03-19T16:09:28.081Z,98949.59
2023-03-19T16:11:57.024Z,98954.11
2023-03-19T16:14:43.821Z,98949.98
2023-03-19T16:17:17.842Z,98945.41
2023-03-19T16:20:00.237Z,98949.21
2023-03-19T16:22:30.645Z,98951.24
2023-03-19T16:24:59.249Z,98954.24
2023-03-19T16:27:39.280Z,98956.09
2023-03-19T16:30:27.631Z,98956.35
2023-03-19T16:33:03.861Z,98955.30
2023-03-19T16:35:33.961Z,98958.08
2023-03-19T16:38:17.054Z,98958.06
2023-03-19T16:40:47.087Z,98963.52
2023-03-19T16:43:22.250Z,98964.16
2023-03-19T16:45:52.594Z,98961.12
2023-03-19T16:48:20.891Z,98962.26
2023-03-19T16:50:48.827Z,98960.33
2023-03-19T16:53:29.717Z,98959.02
2023-03-19T16:55:59.110Z,98961.73
2023-03-19T16:58:36.345Z,98958.88
2023-03-19T17:01:16.640Z,98963.23
2023-03-19T17:03:45.848Z,98963.65
2023-03-19T17:06:14.608Z,98966.09
2023-03-19T17:08:43.577Z,98968.85
2023-03-19T17:11:21.256Z,98971.10
2023-03-19T17:13:49.378Z,98977.92
2023-03-19T17:16:17.383Z,98981.82
2023-03-19T17:18:47.776Z,98992.11
2023-03-19T17:21:21.474Z,98993.02
2023-03-19T17:23:49.661Z,98995.59
2023-03-19T17:26:21.734Z,98997.02
2023-03-19T17:28:50.236Z,98999.91
2023-03-19T17:31:26.675Z,99001.05
2023-03-19T17:34:02.725Z,99002.20
2023-03-19T17:36:30.983Z,99001.74
2023-03-19T17:38:58.928Z,99004.19
2023-03-19T17:41:26.872Z,99006.44
2023-03-19T17:43:54.776Z,99006.98
2023-03-19T17:46:25.207Z,99007.39
2023-03-19T17:48:54.818Z,99006.73
2023-03-19T17:51:24.057Z,99008.10
2023-03-19T17:53:54.324Z,99007.64
2023-03-19T17:56:27.818Z,99010.59
2023-03-19T17:58:55.850Z,99010.98
2023-03-19T18:01:28.161Z,99009.05
2023-03-19T18:03:58.138Z,99009.88
2023-03-19T18:06:32.121Z,99009.94
2023-03-19T18:09:00.323Z,99004.03
2023-03-19T18:11:28.277Z,99010.96
2023-03-19T18:13:56.366Z,99015.98
2023-03-19T18:16:31.553Z,99009.52
2023-03-19T18:19:02.970Z,99006.60
2023-03-19T18:21:31.452Z,99011.82
2023-03-19T18:23:59.269Z,99016.95
2023-03-19T18:26:27.183Z,99020.73
2023-03-19T18:28:55.016Z,99023.30
2023-03-19T18:31:26.774Z,99023.17
2023-03-19T18:33:58.097Z,99025.83
2023-03-19T18:36:29.407Z,99029.28
2023-03-19T18:38:57.862Z,99030.63
2023-03-19T18:41:28.999Z,99034.80
2023-03-19T18:44:07.983Z,99038.27
2023-03-19T18:46:37.843Z,99042.27
2023-03-19T18:49:23.754Z,99043.52
2023-03-19T18:52:02.196Z,99040.22
2023-03-19T18:54:31.633Z,99037.01
2023-03-19T18:57:01.030Z,99033.25
2023-03-19T18:59:32.654Z,99032.43
2023-03-19T19:02:22.678Z,99029.55
2023-03-19T19:04:50.891Z,99031.54
2023-03-19T19:07:18.794Z,99031.77
2023-03-19T19:09:46.711Z,99030.20
2023-03-19T19:12:18.430Z,99032.13
2023-03-19T19:14:47.525Z,99033.38
2023-03-19T19:17:21.560Z,99033.53
2023-03-19T19:19:49.662Z,99036.18
2023-03-19T19:22:19.046Z,99035.46
2023-03-19T19:24:47.403Z,99032.16
2023-03-19T19:27:25.925Z,99029.70
2023-03-19T19:29:54.076Z,99030.23
2023-03-19T19:32:27.038Z,99028.52
2023-03-19T19:34:55.529Z,99029.42
2023-03-19T19:37:23.861Z,99031.61
2023-03-19T19:39:52.209Z,99030.04
2023-03-19T19:42:22.116Z,99038.34
2023-03-19T19:44:53.373Z,99039.08
2023-03-19T19:47:21.254Z,99037.45
2023-03-19T19:49:49.154Z,99034.25
2023-03-19T19:52:19.199Z,99031.84
2023-03-19T19:54:47.666Z,99031.00
2023-03-19T19:57:24.715Z,99033.30
2023-03-19T19:59:54.275Z,99036.77
2023-03-19T20:02:25.562Z,99040.66
2023-03-19T20:04:53.776Z,99039.94
2023-03-19T20:07:22.004Z,99040.19
2023-03-19T20:09:49.897Z,99039.77
2023-03-19T20:12:29.558Z,99040.36
2023-03-19T20:14:57.895Z,99040.94
2023-03-19T20:17:25.881Z,99044.23
2023-03-19T20:19:53.781Z,99046.80
2023-03-19T20:22:23.054Z,99046.56
2023-03-19T20:24:51.595Z,99046.50
2023-03-19T20:27:23.464Z,99046.41
2023-03-19T20:29:51.575Z,99044.83
2023-03-19T20:32:33.936Z,99050.48
2023-03-19T20:35:02.356Z,99050.34
2023-03-19T20:37:30.920Z,99050.19
2023-03-19T20:39:58.913Z,99051.77
2023-03-19T20:42:29.462Z,99049.84
2023-03-19T20:44:59.795Z,99055.40
2023-03-19T20:47:29.016Z,99056.02
2023-03-19T20:49:56.862Z,99052.02
2023-03-19T20:52:25.527Z,99052.05
2023-03-19T20:54:54.058Z,99051.92
2023-03-19T20:57:30.817Z,99051.64
2023-03-19T21:00:02.601Z,99051.00
2023-03-19T21:02:30.948Z,99056.78
2023-03-19T21:04:58.938Z,99052.67
2023-03-19T21:07:34.710Z,99051.88
2023-03-19T21:10:20.085Z,99057.11
2023-03-19T21:12:47.978Z,99057.94
2023-03-19T21:15:16.764Z,99058.29
2023-03-19T21:17:44.791Z,99060.38
2023-03-19T21:20:18.519Z,99063.89
2023-03-19T21:22:50.173Z,99063.60
2023-03-19T21:39:22.016Z,99060.48
2023-03-19T21:41:49.970Z,99061.58
2023-03-19T21:44:22.632Z,99061.36
2023-03-19T21:46:50.850Z,99058.16
2023-03-19T21:49:19.024Z,99056.52
2023-03-19T21:51:47.231Z,99055.10
2023-03-19T21:54:15.730Z,99054.37
2023-03-19T21:56:45.507Z,99055.84
2023-03-19T21:59:32.325Z,99055.87
2023-03-19T22:02:00.385Z,99059.64
2023-03-19T22:04:28.307Z,99057.98
2023-03-19T22:06:56.705Z,99058.52
2023-03-19T22:09:24.634Z,99056.36
2023-03-19T22:11:52.560Z,99052.10
2023-03-19T22:14:30.165Z,99052.61
2023-03-19T22:16:58.164Z,99054.73
2023-03-19T22:19:26.204Z,99054.98
2023-03-19T22:21:54.143Z,99056.27
2023-03-19T22:24:22.034Z,99058.30
2023-03-19T22:26:56.552Z,99059.95
2023-03-19T22:29:25.706Z,99057.73
2023-03-19T22:31:55.804Z,99058.27
2023-03-19T22:34:27.734Z,99061.48
2023-03-19T22:36:56.078Z,99062.02
2023-03-19T22:39:23.974Z,99060.23
2023-03-19T22:41:51.944Z,99056.72
2023-03-19T22:44:26.565Z,99056.23
2023-03-19T22:46:56.538Z,99055.39
2023-03-19T22:49:25.182Z,99055.43
2023-03-19T22:51:53.092Z,99056.15
2023-03-19T22:54:21.318Z,99056.89
2023-03-19T22:56:49.250Z,99060.41
2023-03-19T22:59:17.330Z,99060.98
2023-03-19T23:01:47.433Z,99057.27
2023-03-19T23:04:30.711Z,99060.94
2023-03-19T23:07:01.254Z,99059.89
2023-03-19T23:09:35.973Z,99062.69
2023-03-19T23:12:05.620Z,99059.71
2023-03-19T23:14:33.616Z,99058.92
2023-03-19T23:17:09.999Z,99063.62
2023-03-19T23:19:38.508Z,99061.67
2023-03-19T23:22:07.600Z,99062.04
2023-03-19T23:24:35.664Z,99061.32
2023-03-19T23:27:03.931Z,99061.09
2023-03-19T23:29:35.510Z,99058.95
2023-03-19T23:32:04.495Z,99060.79
2023-03-19T23:34:39.775Z,99061.39
2023-03-19T23:37:13.881Z,99061.66
2023-03-19T23:39:44.251Z,99058.98
2023-03-19T23:42:25.174Z,99056.80
2023-03-19T23:44:56.349Z,99055.48
2023-03-19T23:47:24.242Z,99055.20
2023-03-19T23:49:52.152Z,99055.80
2023-03-19T23:52:20.561Z,99054.34
2023-03-19T23:54:48.547Z,99059.67
2023-03-19T23:57:17.311Z,99058.42
2023-03-19T23:59:53.920Z,99056.38
